Terminal Aerodrome Forecast
Issued by NWS Sterling, VA

Current Version | Previous Version | Graphics & Text | Print | Product List | Glossary On
Versions: 1 2 3 4 5 6 7 8 9 10 11 12 13 14 15 16 17 18 19 20 21 22 23 24 25 26
756
FTUS41 KLWX 221444 AAA
TAFDCA
TAF AMD
KDCA 221444Z 2215/2312 36006KT 6SM -RA OVC008
     FM230100 34006KT 3SM -SHRA BR OVC025
     FM230400 34005KT 3SM BR OVC020=

USA.gov is the U.S. government's official web portal to all federal, state and local government web resources and services.